Česky Dansk Deutsch English Español Suomi Français Magyar Italiano Nederlands norsk Polski Português svenska Türkçe

 

Het Weer

Erzincan (Turkije)

11:50, 16 augustus 2016 (GMT)

NWNNE
WE
SWSSE
Home            
Erzincan Elazig Trabzon Erzurum Malatya / Erhac Sivas Diyarbakir Mus Tur-Afb Batman Tokat Urfa Samsun / Carsamba Kars Samsun Kamishli Gaziantep Merzifon Van Kayseri / Erkilet Adler Yerevan Nevsehir Aleppo International Airport

Om een weerknop op uw website of weblog te plaatsen, copieer onderstaande code en plak die in uw pagina. In het eerste vakje staat HTML-code, in het tweede vakje UBB-code.


Add to Google

Details

Wind speed:1 bf, 2 kn, 1.0 m/s, 2.3 miles/h, 3.7 km/h
Wind direction:Variable
Visibility:Greater than 10000 m, 10 km, 32800 ft, 6.2 miles
Clouds:Aufgelockert bewölkt at 4500 ft, 1372 m
Temperature:32°C, 90°F
Gefühlte Temperatur:31°C, 88°F
Dew-point:13°C, 55°F
Atmospheric pressure:1009 hPa, 756.8 mmHg, 29.80 inHg, 0.996 atm
Relative humidity:31.5 %
METAR:LTCD 161150Z VRB02KT 9999 SCT045 32/13 Q1009 NOSIG

Snelkoppelingen

Actuele weersinformatie van de hele wereld. Voeg locaties toe met het plus (+) symbool. Deze snelkoppelingen kunnen worden toegevoegd aan Google.

Lid van de Technetium groep

website free tracking
StatCounter NetStat W3C Validator

18-08-2022 03:17:43
astro.technetium.be money.technetium.be phote.technetium.be tafeltennistafel.technetium.be www.ligfiets.net